Time,TemperatureF,DewpointF,PressureIn,WindDirection,WindDirectionDegrees,WindSpeedMPH,WindSpeedGustMPH,Humidity,HourlyPrecipIn,Conditions,Clouds,dailyrainin,SoftwareType,DateUTC
2013-12-27 00:11:00,21.0,-99.9,-100.00,ENE,59,1.0,2.0,-999,-99.99,,,-99.99,,2013-12-27 08:11:00,
2013-12-27 01:11:00,19.0,-99.9,-100.00,SSE,156,1.0,2.0,-999,-99.99,,,-99.99,,2013-12-27 09:11:00,
2013-12-27 04:12:00,14.0,-99.9,-100.00,NW,304,3.0,3.0,-999,-99.99,,,-99.99,,2013-12-27 12:12:00,
2013-12-27 05:12:00,16.0,-99.9,-100.00,NNE,25,2.0,5.0,-999,-99.99,,,-99.99,,2013-12-27 13:12:00,
2013-12-27 06:12:00,15.0,-99.9,-100.00,SW,216,2.0,3.0,-999,-99.99,,,-99.99,,2013-12-27 14:12:00,
2013-12-27 07:12:00,15.0,-99.9,-100.00,WSW,244,1.0,2.0,-999,-99.99,,,-99.99,,2013-12-27 15:12:00,
2013-12-27 08:13:00,16.0,-99.9,-100.00,WNW,288,2.0,3.0,-999,-99.99,,,-99.99,,2013-12-27 16:13:00,
2013-12-27 09:12:00,15.0,-99.9,-100.00,WSW,254,2.0,3.0,-999,-99.99,,,-99.99,,2013-12-27 17:12:00,
2013-12-27 10:12:00,17.0,-99.9,-100.00,NW,316,1.0,2.0,-999,-99.99,,,-99.99,,2013-12-27 18:12:00,
2013-12-27 11:12:00,21.0,-99.9,-100.00,SE,129,2.0,3.0,-999,-99.99,,,-99.99,,2013-12-27 19:12:00,
2013-12-27 12:11:00,22.0,-99.9,-100.00,North,10,2.0,3.0,-999,-99.99,,,-99.99,,2013-12-27 20:11:00,
2013-12-27 13:11:00,23.0,-99.9,-100.00,South,190,2.0,5.0,-999,-99.99,,,-99.99,,2013-12-27 21:11:00,
2013-12-27 14:13:00,24.0,-99.9,-100.00,North,-999,0.0,2.0,-999,-99.99,,,-99.99,,2013-12-27 22:13:00,
2013-12-27 15:12:00,24.0,-99.9,-100.00,SW,221,2.0,3.0,-999,-99.99,,,-99.99,,2013-12-27 23:12:00,
2013-12-27 16:11:00,25.0,-99.9,-100.00,East,92,2.0,3.0,-999,-99.99,,,-99.99,,2013-12-28 00:11:00,
2013-12-27 17:12:00,25.0,-99.9,-100.00,NNE,15,3.0,6.0,-999,-99.99,,,-99.99,,2013-12-28 01:12:00,
2013-12-27 18:12:00,25.0,-99.9,-100.00,NW,305,1.0,3.0,-999,-99.99,,,-99.99,,2013-12-28 02:12:00,
2013-12-27 19:12:00,25.0,-99.9,-100.00,NNE,24,1.0,3.0,-999,-99.99,,,-99.99,,2013-12-28 03:12:00,
2013-12-27 20:13:00,25.0,-99.9,-100.00,WNW,295,2.0,3.0,-999,-99.99,,,-99.99,,2013-12-28 04:13:00,
2013-12-27 21:13:00,25.0,-99.9,-100.00,NW,308,2.0,3.0,-999,-99.99,,,-99.99,,2013-12-28 05:13:00,
2013-12-27 22:12:00,24.0,-99.9,-100.00,West,279,2.0,6.0,-999,-99.99,,,-99.99,,2013-12-28 06:12:00,
2013-12-27 23:12:00,24.0,-99.9,-100.00,NE,53,5.0,10.0,-999,-99.99,,,-99.99,,2013-12-28 07:12:00,